createdAt,value
2023-02-15T00:04:49.756Z,78.09
2023-02-15T00:09:56.983Z,78.33
2023-02-15T00:15:04.213Z,78.33
2023-02-15T00:20:12.811Z,78.38
2023-02-15T00:25:20.565Z,78.33
2023-02-15T00:30:27.729Z,78.33
2023-02-15T00:35:35.892Z,78.30
2023-02-15T00:40:43.119Z,78.35
2023-02-15T00:45:50.981Z,78.41
2023-02-15T00:51:00.854Z,78.40
2023-02-15T00:56:08.218Z,78.43
2023-02-15T01:01:17.539Z,78.50
2023-02-15T01:06:25.437Z,78.31
2023-02-15T01:11:32.728Z,78.29
2023-02-15T01:16:39.841Z,78.40
2023-02-15T01:21:47.010Z,78.54
2023-02-15T01:26:54.098Z,78.49
2023-02-15T01:32:01.340Z,78.65
2023-02-15T01:37:08.594Z,78.71
2023-02-15T01:42:16.375Z,78.67
2023-02-15T01:47:30.779Z,78.60
2023-02-15T01:52:43.032Z,78.64
2023-02-15T01:57:53.377Z,78.37
2023-02-15T02:03:01.239Z,78.53
2023-02-15T02:08:10.772Z,78.74
2023-02-15T02:13:18.073Z,78.90
2023-02-15T02:18:44.879Z,78.80
2023-02-15T02:24:16.708Z,78.80
2023-02-15T02:29:50.249Z,78.84
2023-02-15T02:35:03.371Z,78.94
2023-02-15T02:40:19.157Z,79.02
2023-02-15T02:45:34.527Z,79.25
2023-02-15T02:50:43.249Z,79.16
2023-02-15T02:55:53.490Z,78.87
2023-02-15T03:01:07.585Z,78.80
2023-02-15T03:06:19.156Z,78.85
2023-02-15T03:11:26.411Z,79.08
2023-02-15T03:16:33.897Z,78.99
2023-02-15T03:21:50.525Z,79.10
2023-02-15T03:26:59.334Z,79.03
2023-02-15T03:32:11.691Z,78.82
2023-02-15T03:37:26.540Z,79.00
2023-02-15T03:42:36.395Z,79.03
2023-02-15T03:47:48.105Z,79.08
2023-02-15T03:53:17.510Z,79.23
2023-02-15T03:58:42.637Z,79.28
2023-02-15T04:03:58.456Z,79.22
2023-02-15T04:09:34.741Z,79.24
2023-02-15T04:14:59.593Z,79.23
2023-02-15T04:20:25.548Z,79.16
2023-02-15T04:25:32.695Z,79.30
2023-02-15T04:30:39.902Z,79.24
2023-02-15T04:35:47.423Z,79.56
2023-02-15T04:40:55.385Z,79.43
2023-02-15T04:46:02.933Z,79.38
2023-02-15T04:51:12.484Z,79.47
2023-02-15T04:56:19.660Z,79.45
2023-02-15T05:01:27.015Z,79.58
2023-02-15T05:06:34.330Z,79.64
2023-02-15T05:11:41.612Z,79.58
2023-02-15T05:16:48.857Z,79.59
2023-02-15T05:21:56.287Z,79.47
2023-02-15T05:27:20.920Z,79.59
2023-02-15T05:32:28.456Z,79.73
2023-02-15T05:37:35.739Z,79.64
2023-02-15T05:42:42.959Z,79.67
2023-02-15T05:47:50.169Z,79.82
2023-02-15T05:52:57.860Z,79.89
2023-02-15T05:58:05.187Z,79.77
2023-02-15T06:03:12.431Z,79.88
2023-02-15T06:08:19.872Z,79.95
2023-02-15T06:13:27.181Z,80.09
2023-02-15T06:18:34.370Z,79.96
2023-02-15T06:23:41.779Z,79.92
2023-02-15T06:28:48.967Z,79.72
2023-02-15T06:34:01.989Z,79.89
2023-02-15T06:39:09.227Z,79.91
2023-02-15T06:44:16.406Z,79.92
2023-02-15T06:49:23.705Z,79.97
2023-02-15T06:54:31.226Z,80.01
2023-02-15T06:59:38.524Z,80.08
2023-02-15T07:04:46.406Z,80.30
2023-02-15T07:09:56.433Z,80.05
2023-02-15T07:15:07.899Z,80.00
2023-02-15T07:20:20.795Z,80.39
2023-02-15T07:25:28.841Z,80.38
2023-02-15T07:30:34.645Z,80.26
2023-02-15T07:36:03.390Z,80.25
2023-02-15T07:41:16.046Z,80.57
2023-02-15T07:46:25.690Z,80.63
2023-02-15T07:51:32.917Z,80.41
2023-02-15T07:56:40.404Z,80.54
2023-02-15T08:01:47.557Z,80.72
2023-02-15T08:06:56.511Z,80.86
2023-02-15T08:12:04.193Z,80.85
2023-02-15T08:17:11.494Z,80.86
2023-02-15T08:22:18.939Z,80.80
2023-02-15T08:27:29.566Z,80.74
2023-02-15T08:32:35.391Z,80.86
2023-02-15T08:37:42.625Z,80.92
2023-02-15T08:42:49.856Z,81.07
2023-02-15T08:47:57.112Z,81.07
2023-02-15T08:53:05.089Z,80.90
2023-02-15T08:58:13.504Z,80.66
2023-02-15T09:03:20.836Z,80.94
2023-02-15T09:08:28.191Z,81.02
2023-02-15T09:13:35.501Z,81.08
2023-02-15T09:18:43.243Z,81.13
2023-02-15T09:23:52.601Z,80.93
2023-02-15T09:29:02.579Z,80.83
2023-02-15T09:34:10.296Z,80.80
2023-02-15T09:39:22.239Z,80.77
2023-02-15T09:44:44.385Z,80.87
2023-02-15T09:50:01.380Z,80.85
2023-02-15T09:55:38.121Z,80.71
2023-02-15T10:01:05.324Z,80.60
2023-02-15T10:06:35.186Z,80.42
2023-02-15T10:11:55.033Z,80.52
2023-02-15T10:17:11.282Z,80.39
2023-02-15T10:22:31.065Z,80.09
2023-02-15T10:27:48.656Z,80.10
2023-02-15T10:33:04.045Z,80.18
2023-02-15T10:38:22.127Z,80.14
2023-02-15T10:43:44.566Z,80.11
2023-02-15T10:49:21.497Z,80.13
2023-02-15T10:54:39.059Z,79.94
2023-02-15T11:00:04.153Z,79.87
2023-02-15T11:05:26.251Z,79.84
2023-02-15T11:10:37.639Z,79.88
2023-02-15T11:15:47.912Z,79.86
2023-02-15T11:21:00.819Z,79.56
2023-02-15T11:26:15.464Z,79.51
2023-02-15T11:31:44.636Z,79.38
2023-02-15T11:36:55.812Z,79.68
2023-02-15T11:42:09.017Z,79.64
2023-02-15T11:47:16.616Z,79.65
2023-02-15T11:52:24.430Z,79.47
2023-02-15T11:57:40.196Z,79.54
2023-02-15T12:02:52.736Z,79.68
2023-02-15T12:08:07.029Z,79.85
2023-02-15T12:13:16.575Z,79.64
2023-02-15T12:18:36.039Z,79.29
2023-02-15T12:23:50.449Z,79.35
2023-02-15T12:29:02.685Z,79.43
2023-02-15T12:34:15.383Z,79.06
2023-02-15T12:39:27.161Z,79.12
2023-02-15T12:44:36.984Z,79.42
2023-02-15T12:49:48.044Z,79.32
2023-02-15T12:54:55.729Z,79.41
2023-02-15T13:00:05.952Z,79.26
2023-02-15T13:05:24.689Z,78.96
2023-02-15T13:10:36.594Z,79.01
2023-02-15T13:15:48.971Z,78.97
2023-02-15T13:20:56.740Z,79.00
2023-02-15T13:26:13.253Z,79.01
2023-02-15T13:31:23.108Z,78.76
2023-02-15T13:36:41.042Z,78.85
2023-02-15T13:41:59.044Z,78.91
2023-02-15T13:47:18.132Z,78.82
2023-02-15T13:52:27.950Z,78.81
2023-02-15T13:57:59.672Z,78.72
2023-02-15T14:03:31.585Z,78.80
2023-02-15T14:08:52.934Z,78.34
2023-02-15T14:14:28.498Z,78.19
2023-02-15T14:19:51.044Z,78.38
2023-02-15T14:25:15.322Z,78.56
2023-02-15T14:30:27.718Z,78.57
2023-02-15T14:35:36.090Z,78.44
2023-02-15T14:41:03.932Z,78.55
2023-02-15T14:46:27.030Z,78.60
2023-02-15T14:52:00.051Z,78.55
2023-02-15T14:57:34.814Z,78.59
2023-02-15T15:02:50.396Z,78.57
2023-02-15T15:08:02.031Z,78.42
2023-02-15T15:13:39.157Z,78.40
2023-02-15T15:18:51.393Z,78.56
2023-02-15T15:23:58.550Z,78.41
2023-02-15T15:29:08.543Z,78.35
2023-02-15T15:34:45.120Z,78.43
2023-02-15T15:40:34.620Z,78.70
2023-02-15T15:45:51.788Z,78.57
2023-02-15T15:51:02.096Z,78.60
2023-02-15T15:56:13.351Z,78.58
2023-02-15T16:01:26.214Z,78.58
2023-02-15T16:06:39.312Z,78.65
2023-02-15T16:11:47.861Z,78.54
2023-02-15T16:16:57.609Z,78.45
2023-02-15T16:22:06.124Z,78.64
2023-02-15T16:27:35.699Z,78.69
2023-02-15T16:32:43.001Z,78.73
2023-02-15T16:37:50.364Z,78.65
2023-02-15T16:43:02.465Z,78.56
2023-02-15T16:48:16.068Z,78.65
2023-02-15T16:53:26.566Z,78.72
2023-02-15T16:58:39.468Z,78.68
2023-02-15T17:03:50.517Z,78.63
2023-02-15T17:09:11.623Z,78.70
2023-02-15T17:14:28.938Z,78.73
2023-02-15T17:19:50.085Z,78.82
2023-02-15T17:25:04.655Z,78.94
2023-02-15T17:30:24.001Z,78.87
2023-02-15T17:35:33.309Z,78.89
2023-02-15T17:40:40.800Z,78.95
2023-02-15T17:45:51.358Z,78.88
2023-02-15T17:50:58.730Z,78.82
2023-02-15T17:56:11.669Z,78.92
2023-02-15T18:01:39.964Z,79.06
2023-02-15T18:07:05.305Z,79.06
2023-02-15T18:12:22.846Z,79.07
2023-02-15T18:17:34.948Z,79.18
2023-02-15T18:22:42.300Z,79.20
2023-02-15T18:27:49.804Z,79.17
2023-02-15T18:32:58.830Z,79.25
2023-02-15T18:38:06.129Z,79.18
2023-02-15T18:43:14.651Z,79.29
2023-02-15T18:48:21.736Z,79.35
2023-02-15T18:53:28.913Z,79.29
2023-02-15T18:58:36.115Z,79.54
2023-02-15T19:03:43.298Z,79.46
2023-02-15T19:08:52.846Z,79.46
2023-02-15T19:14:00.015Z,79.36
2023-02-15T19:19:07.471Z,79.49
2023-02-15T19:24:19.267Z,79.42
2023-02-15T19:29:31.347Z,79.33
2023-02-15T19:34:38.721Z,79.53
2023-02-15T19:39:45.923Z,79.43
2023-02-15T19:44:54.654Z,79.48
2023-02-15T19:50:03.752Z,79.66
2023-02-15T19:55:22.504Z,79.54
2023-02-15T20:00:31.970Z,79.73
2023-02-15T20:05:39.725Z,79.74
2023-02-15T20:10:47.056Z,79.85
2023-02-15T20:15:54.557Z,79.87
2023-02-15T20:21:03.741Z,80.03
2023-02-15T20:26:18.572Z,80.07
2023-02-15T20:31:26.734Z,80.23
2023-02-15T20:36:35.077Z,80.40
2023-02-15T20:41:47.981Z,80.35
2023-02-15T20:46:57.567Z,80.40
2023-02-15T20:52:14.944Z,80.43
2023-02-15T20:57:22.137Z,80.32
2023-02-15T21:02:29.373Z,80.30
2023-02-15T21:07:36.559Z,80.29
2023-02-15T21:12:43.813Z,80.13
2023-02-15T21:17:50.960Z,80.15
2023-02-15T21:23:00.252Z,80.07
2023-02-15T21:28:09.090Z,80.44
2023-02-15T21:33:16.441Z,80.53
2023-02-15T21:38:26.604Z,80.66
2023-02-15T21:43:51.170Z,80.75
2023-02-15T21:48:58.356Z,80.67
2023-02-15T21:54:06.077Z,80.70
2023-02-15T21:59:13.406Z,80.71
2023-02-15T22:04:25.012Z,80.73
2023-02-15T22:09:34.000Z,80.74
2023-02-15T22:14:43.676Z,80.79
2023-02-15T22:19:55.233Z,80.82
2023-02-15T22:25:05.868Z,80.87
2023-02-15T22:30:24.083Z,80.77
2023-02-15T22:35:34.620Z,80.67
2023-02-15T22:40:43.115Z,80.85
2023-02-15T22:45:50.978Z,80.84
2023-02-15T22:51:01.114Z,80.77
2023-02-15T22:56:16.448Z,80.89
2023-02-15T23:01:29.976Z,80.87
2023-02-15T23:06:37.926Z,80.79
2023-02-15T23:11:46.043Z,80.94
2023-02-15T23:16:53.422Z,81.01
2023-02-15T23:22:00.658Z,81.07
2023-02-15T23:27:21.677Z,81.08
2023-02-15T23:32:29.175Z,81.04
2023-02-15T23:37:36.376Z,81.07
2023-02-15T23:42:44.602Z,80.84
2023-02-15T23:48:10.100Z,80.98
2023-02-15T23:53:18.690Z,81.06
2023-02-15T23:58:34.052Z,81.13
